Time;durP1;ratioP1;P1;durP2;ratioP2;P2;SDS_P1;SDS_P2;PMS_P1;PMS_P2;Temp;Humidity;BMP_temperature;BMP_pressure;BME280_temperature;BME280_humidity;BME280_pressure;Samples;Min_cycle;Max_cycle;Signal;HPM_P1;HPM_P2
2023/05/26 00:01:02;;;;;;;7.23;5.60;;;;;;;17.48;80.83;96997.44;5004737;28;20204;-70
2023/05/26 00:03:29;;;;;;;9.30;5.50;;;;;;;17.53;81.19;96984.91;5008675;28;20675;-73
2023/05/26 00:05:57;;;;;;;6.97;5.83;;;;;;;17.15;83.21;97002.53;5009882;28;20234;-71
2023/05/26 00:08:24;;;;;;;6.53;5.33;;;;;;;17.22;83.14;96985.44;5010618;28;20195;-73
2023/05/26 00:10:51;;;;;;;6.90;5.53;;;;;;;17.37;82.00;96989.53;5010391;28;20204;-70
2023/05/26 00:13:18;;;;;;;6.73;5.67;;;;;;;17.22;83.24;96997.69;5009800;28;20242;-71
2023/05/26 00:15:45;;;;;;;9.87;5.90;;;;;;;17.22;83.29;96989.84;5025941;28;20227;-70
2023/05/26 00:18:12;;;;;;;6.63;5.87;;;;;;;17.21;82.81;96994.22;5009472;28;20220;-70
2023/05/26 00:20:40;;;;;;;8.50;5.37;;;;;;;17.39;82.53;96992.06;5009652;28;20765;-72
2023/05/26 00:23:07;;;;;;;6.93;5.37;;;;;;;17.48;81.04;96981.75;5009930;28;20187;-70
2023/05/26 00:25:34;;;;;;;8.87;5.43;;;;;;;17.61;79.95;96987.78;4992718;28;20251;-69
2023/05/26 00:28:01;;;;;;;6.13;4.83;;;;;;;17.62;80.36;96992.06;5010417;28;20253;-69
2023/05/26 00:30:28;;;;;;;7.33;5.30;;;;;;;17.71;80.27;96990.53;5008261;28;20221;-70
2023/05/26 00:32:55;;;;;;;6.03;5.03;;;;;;;17.62;80.93;96984.19;5009307;28;20202;-69
2023/05/26 00:35:22;;;;;;;5.50;4.90;;;;;;;17.15;82.51;96983.38;5009195;28;20283;-72
2023/05/26 00:37:49;;;;;;;6.90;4.93;;;;;;;17.31;81.84;96987.38;5010346;28;20632;-71
2023/05/26 00:40:17;;;;;;;9.67;5.40;;;;;;;17.39;82.44;96985.06;5009229;28;20199;-71
2023/05/26 00:42:44;;;;;;;12.60;5.50;;;;;;;17.34;82.29;96984.53;5008911;28;20223;-72
2023/05/26 00:45:11;;;;;;;11.90;5.97;;;;;;;17.37;81.77;96993.97;5024812;28;20231;-72
2023/05/26 00:47:38;;;;;;;10.80;5.50;;;;;;;17.36;81.14;96998.34;5009354;28;20222;-70
2023/05/26 00:50:06;;;;;;;9.17;5.27;;;;;;;17.30;80.80;97001.44;5010586;28;20188;-78
2023/05/26 00:52:34;;;;;;;10.67;5.63;;;;;;;17.23;80.30;96994.97;5007843;28;20746;-77
2023/05/26 00:55:02;;;;;;;10.17;5.70;;;;;;;17.13;80.82;97008.81;5009815;28;20278;-71
2023/05/26 00:57:30;;;;;;;6.80;5.40;;;;;;;16.32;84.77;96991.97;5008706;28;20226;-69
2023/05/26 00:59:58;;;;;;;7.63;5.83;;;;;;;16.08;86.92;97000.53;5009909;28;20219;-70
2023/05/26 01:03:05;;;;;;;6.77;5.90;;;;;;;16.28;85.73;96986.09;5007901;28;20774;-71
2023/05/26 01:06:26;;;;;;;5.67;5.10;;;;;;;16.69;83.88;96986.66;5006527;28;20234;-70
2023/05/26 01:09:46;;;;;;;7.97;5.17;;;;;;;16.74;83.08;96974.13;5009185;28;20195;-72
2023/05/26 01:13:20;;;;;;;6.13;5.40;;;;;;;16.93;82.29;96977.09;5009383;28;20286;-71
2023/05/26 01:16:42;;;;;;;11.80;5.67;;;;;;;17.03;81.79;96972.88;5007330;28;20195;-69
2023/05/26 01:19:40;;;;;;;6.70;5.30;;;;;;;16.99;80.67;96973.19;5008245;28;20205;-69
2023/05/26 01:22:33;;;;;;;9.93;5.10;;;;;;;16.97;81.02;96980.31;5006129;28;21069;-69
2023/05/26 01:25:39;;;;;;;5.83;4.83;;;;;;;16.92;81.29;96979.78;5009066;28;20228;-70
2023/05/26 01:29:00;;;;;;;9.43;5.30;;;;;;;16.69;81.78;96984.06;5006535;28;20195;-71
2023/05/26 01:32:26;;;;;;;10.13;6.77;;;;;;;16.67;82.14;96982.53;5007930;28;20202;-70
2023/05/26 01:35:47;;;;;;;9.37;6.00;;;;;;;16.81;81.36;96969.28;5008509;28;20226;-70
2023/05/26 01:39:08;;;;;;;8.13;6.43;;;;;;;16.29;82.68;96967.72;5009072;28;20294;-71
2023/05/26 01:42:27;;;;;;;9.13;6.07;;;;;;;16.06;84.05;96963.22;5008670;28;20623;-72
2023/05/26 01:45:37;;;;;;;7.17;5.63;;;;;;;16.08;83.63;96977.03;5007519;28;20191;-70
2023/05/26 01:48:57;;;;;;;5.87;5.27;;;;;;;16.52;81.84;96962.69;5006159;28;20292;-73
2023/05/26 01:52:18;;;;;;;6.00;4.97;;;;;;;16.60;80.50;96965.56;5008740;28;20199;-69
2023/05/26 01:55:39;;;;;;;6.40;4.93;;;;;;;16.25;81.13;96962.78;5008405;28;20227;-70
2023/05/26 01:58:59;;;;;;;9.13;5.63;;;;;;;16.61;79.41;96975.91;5005560;28;20585;-75
2023/05/26 02:02:20;;;;;;;5.07;4.57;;;;;;;16.38;80.56;96970.63;5005571;28;20361;-72
2023/05/26 02:05:41;;;;;;;7.47;4.63;;;;;;;16.51;79.29;96967.06;5008065;28;20716;-70
2023/05/26 02:09:03;;;;;;;8.43;4.57;;;;;;;16.72;77.36;96959.47;5006414;28;20239;-70
2023/05/26 02:12:24;;;;;;;10.43;4.80;;;;;;;16.91;77.32;96967.69;5006088;28;20194;-75
2023/05/26 02:15:47;;;;;;;8.00;4.57;;;;;;;17.07;77.17;96970.84;5007326;28;20199;-76
2023/05/26 02:19:07;;;;;;;6.57;4.90;;;;;;;17.05;77.80;96943.97;5006040;28;20239;-77
2023/05/26 02:22:28;;;;;;;6.50;4.87;;;;;;;17.24;77.80;96967.00;5006338;28;20286;-75
2023/05/26 02:25:48;;;;;;;9.33;5.07;;;;;;;16.92;77.82;96948.41;5007792;28;20215;-76
2023/05/26 02:29:10;;;;;;;5.97;4.57;;;;;;;16.96;78.98;96962.97;5005203;28;20204;-77
2023/05/26 02:32:30;;;;;;;5.87;5.00;;;;;;;17.04;79.42;96958.00;5005095;28;20211;-78
2023/05/26 02:35:51;;;;;;;5.53;4.70;;;;;;;17.16;78.97;96957.13;5006035;28;20203;-76
2023/05/26 02:39:12;;;;;;;10.83;5.27;;;;;;;17.26;79.04;96965.97;5005668;28;20205;-74
2023/05/26 02:42:32;;;;;;;6.37;4.40;;;;;;;16.86;79.51;96954.94;5004971;28;20709;-79
2023/05/26 02:45:53;;;;;;;5.53;4.50;;;;;;;16.98;79.12;96953.22;5004602;28;20199;-78
2023/05/26 02:49:13;;;;;;;10.73;5.17;;;;;;;17.10;79.08;96958.38;5005715;28;20305;-73
2023/05/26 02:52:34;;;;;;;10.27;5.10;;;;;;;17.10;78.71;96965.41;5006134;28;20196;-75
2023/05/26 02:55:55;;;;;;;5.30;4.80;;;;;;;17.19;79.00;96966.53;4990923;28;20251;-72
2023/05/26 02:59:15;;;;;;;5.67;5.13;;;;;;;16.99;78.88;96963.56;5004654;28;20196;-75
2023/05/26 03:02:36;;;;;;;6.90;4.73;;;;;;;16.95;78.97;96961.28;5004906;28;20208;-76
2023/05/26 03:05:58;;;;;;;7.57;5.70;;;;;;;17.07;78.79;96963.00;5007434;28;20732;-74
2023/05/26 03:09:22;;;;;;;10.83;5.93;;;;;;;16.87;80.18;96963.63;5006004;28;20199;-73
2023/05/26 03:12:45;;;;;;;7.13;5.90;;;;;;;16.91;79.88;96960.69;5004827;28;20691;-71
2023/05/26 03:16:06;;;;;;;8.60;6.07;;;;;;;17.18;79.12;96964.84;5002728;28;20228;-70
2023/05/26 03:19:27;;;;;;;8.40;5.57;;;;;;;17.26;78.52;96976.44;5002309;28;20282;-71
2023/05/26 03:22:48;;;;;;;6.00;5.40;;;;;;;17.28;79.03;96982.38;4987780;28;20694;-69
2023/05/26 03:26:08;;;;;;;10.37;5.83;;;;;;;17.21;78.91;96975.91;4987365;28;20236;-70
2023/05/26 03:29:30;;;;;;;7.40;5.70;;;;;;;17.32;78.07;96975.97;4985171;28;20196;-70
2023/05/26 03:32:51;;;;;;;8.43;5.33;;;;;;;17.06;79.25;96971.81;4994161;28;20196;-70
2023/05/26 03:36:27;;;;;;;8.97;5.20;;;;;;;17.22;78.48;96977.59;5005378;28;20258;-70
2023/05/26 03:39:56;;;;;;;7.57;5.23;;;;;;;17.44;77.64;96979.47;5008836;28;20209;-70
2023/05/26 03:43:20;;;;;;;7.03;4.67;;;;;;;17.50;76.90;96989.50;5004056;28;20218;-70
2023/05/26 03:46:42;;;;;;;8.27;5.37;;;;;;;17.33;77.94;96982.88;5005301;28;20332;-70
2023/05/26 03:50:04;;;;;;;12.73;5.20;;;;;;;17.22;78.46;96997.69;5006552;28;20696;-70
2023/05/26 03:53:24;;;;;;;11.93;7.17;;;;;;;17.37;78.33;97002.63;5008909;28;20228;-71
2023/05/26 03:56:45;;;;;;;12.47;7.37;;;;;;;16.73;80.12;97006.44;5006737;28;20322;-69
2023/05/26 04:00:07;;;;;;;10.00;6.03;;;;;;;16.88;80.72;97002.75;4991210;28;20195;-72
2023/05/26 04:03:30;;;;;;;7.03;6.33;;;;;;;16.74;80.67;97009.88;5008041;28;20752;-72
2023/05/26 04:06:52;;;;;;;8.37;6.17;;;;;;;16.76;81.10;97008.84;5008717;28;20296;-71
2023/05/26 04:10:12;;;;;;;9.13;6.97;;;;;;;16.84;79.82;96998.66;5004218;28;20992;-72
2023/05/26 04:13:33;;;;;;;8.63;6.43;;;;;;;16.70;80.73;97001.44;5020980;28;20207;-72
2023/05/26 04:16:53;;;;;;;9.63;6.23;;;;;;;16.99;80.38;97005.44;5008078;28;20203;-74
2023/05/26 04:20:15;;;;;;;10.27;7.33;;;;;;;16.96;79.72;97004.81;4990432;28;20735;-75
2023/05/26 04:23:35;;;;;;;9.67;6.60;;;;;;;16.82;80.42;97010.19;4990848;28;20335;-75
2023/05/26 04:27:02;;;;;;;15.13;7.17;;;;;;;17.19;80.17;97013.63;4988683;28;20263;-72
2023/05/26 04:29:48;;;;;;;8.47;5.70;;;;;;;17.43;79.62;97015.31;4991211;28;20203;-74
2023/05/26 04:32:29;;;;;;;15.03;7.17;;;;;;;17.59;79.60;97017.66;4990026;28;20200;-72
2023/05/26 04:35:15;;;;;;;10.30;6.90;;;;;;;17.55;80.14;97008.34;4990666;28;20211;-70
2023/05/26 04:37:42;;;;;;;7.67;5.50;;;;;;;17.81;78.61;97018.56;5004242;28;20766;-71
2023/05/26 04:40:10;;;;;;;10.47;6.30;;;;;;;17.77;77.80;97019.72;4989283;28;20199;-71
2023/05/26 04:42:37;;;;;;;7.50;5.40;;;;;;;17.70;78.17;97010.66;4987961;28;20620;-79
2023/05/26 04:45:05;;;;;;;17.73;7.03;;;;;;;17.75;78.51;96994.59;4989209;28;20197;-77
2023/05/26 04:47:34;;;;;;;11.90;6.43;;;;;;;17.79;77.28;97009.13;4988191;28;20271;-74
2023/05/26 04:50:02;;;;;;;11.50;7.10;;;;;;;17.94;76.79;97026.34;4987993;28;20205;-74
2023/05/26 04:52:30;;;;;;;11.90;9.20;;;;;;;18.02;76.69;97020.50;5005473;28;20276;-76
2023/05/26 04:54:57;;;;;;;9.50;6.37;;;;;;;18.12;76.06;97024.94;4994527;28;20208;-70
2023/05/26 04:57:25;;;;;;;8.60;6.00;;;;;;;18.03;76.10;97033.50;5008652;28;20930;-73
2023/05/26 04:59:54;;;;;;;15.90;5.87;;;;;;;17.91;76.97;97025.75;5007165;28;20699;-71
2023/05/26 05:02:22;;;;;;;17.40;6.50;;;;;;;17.93;78.02;97031.69;4992121;28;20714;-71
2023/05/26 05:05:12;;;;;;;15.00;6.47;;;;;;;17.93;78.50;97036.94;5008536;28;20216;-71
2023/05/26 05:07:39;;;;;;;14.97;6.33;;;;;;;17.92;78.75;97030.00;5007417;28;20235;-71
2023/05/26 05:10:07;;;;;;;13.77;6.20;;;;;;;17.90;77.80;97040.63;5024801;28;20671;-70
2023/05/26 05:12:36;;;;;;;11.40;5.93;;;;;;;17.58;78.33;97024.66;5006923;28;20217;-71
2023/05/26 05:15:07;;;;;;;8.20;5.93;;;;;;;17.80;79.05;97032.59;5009509;28;20191;-72
2023/05/26 05:17:35;;;;;;;7.00;5.73;;;;;;;17.93;77.96;97036.94;5007347;28;20193;-72
2023/05/26 05:20:04;;;;;;;7.03;5.30;;;;;;;17.84;78.23;97031.44;5007987;28;20227;-74
2023/05/26 05:22:45;;;;;;;9.40;5.87;;;;;;;17.89;78.32;97038.94;5024356;28;20594;-73
2023/05/26 05:25:13;;;;;;;7.97;5.80;;;;;;;17.62;80.20;97039.19;5008222;28;20378;-72
2023/05/26 05:27:40;;;;;;;11.47;6.67;;;;;;;17.50;81.16;97044.50;5007985;28;20200;-73
2023/05/26 05:30:08;;;;;;;9.53;6.40;;;;;;;17.42;81.49;97046.81;5007927;28;20218;-71
2023/05/26 05:32:35;;;;;;;7.80;5.43;;;;;;;17.29;81.07;97048.66;5007981;28;20194;-70
2023/05/26 05:35:02;;;;;;;9.57;6.40;;;;;;;17.35;81.31;97054.25;5006871;28;20559;-71
2023/05/26 05:37:29;;;;;;;8.87;5.93;;;;;;;17.30;81.92;97058.16;5007530;28;20669;-70
2023/05/26 05:39:56;;;;;;;6.47;5.70;;;;;;;17.08;82.37;97059.72;5008691;28;20757;-72
2023/05/26 05:42:24;;;;;;;7.57;5.37;;;;;;;17.06;82.68;97053.75;5006520;28;20288;-72
2023/05/26 05:44:51;;;;;;;7.63;5.47;;;;;;;17.29;82.56;97061.75;5007290;28;20634;-75
2023/05/26 05:47:35;;;;;;;10.07;5.73;;;;;;;17.07;83.29;97063.28;5005925;28;20817;-70
2023/05/26 05:50:04;;;;;;;9.40;6.10;;;;;;;17.11;83.55;97042.94;5007162;28;20779;-71
2023/05/26 05:52:35;;;;;;;8.07;6.03;;;;;;;17.44;83.04;97069.31;5006210;28;20195;-72
2023/05/26 05:55:02;;;;;;;8.43;5.83;;;;;;;17.71;82.17;97067.34;5006870;28;20222;-71
2023/05/26 05:57:29;;;;;;;10.30;6.43;;;;;;;17.76;81.59;97059.97;5007269;28;20218;-73
2023/05/26 05:59:57;;;;;;;11.77;7.03;;;;;;;17.98;81.16;97063.63;5005861;28;20200;-69
2023/05/26 06:02:24;;;;;;;9.73;7.10;;;;;;;17.92;80.52;97058.84;5006332;28;20231;-74
2023/05/26 06:04:52;;;;;;;13.93;7.73;;;;;;;18.09;81.28;97068.91;5005461;28;20242;-69
2023/05/26 06:07:19;;;;;;;9.80;7.47;;;;;;;18.12;80.59;97071.28;5006575;28;20227;-73
2023/05/26 06:09:46;;;;;;;8.77;6.50;;;;;;;18.12;80.92;97073.91;5005605;28;20223;-72
2023/05/26 06:12:14;;;;;;;12.97;7.60;;;;;;;18.20;80.81;97069.75;5006800;28;20200;-71
2023/05/26 06:14:43;;;;;;;13.90;7.83;;;;;;;18.22;81.65;97067.00;5006478;28;20204;-71
2023/05/26 06:17:11;;;;;;;16.37;8.03;;;;;;;18.13;82.47;97062.47;4989083;28;20215;-73
2023/05/26 06:19:38;;;;;;;8.70;7.40;;;;;;;18.11;82.33;97074.88;5006468;28;20204;-72
2023/05/26 06:22:05;;;;;;;10.03;7.87;;;;;;;18.12;83.20;97081.75;5004984;28;20284;-71
2023/05/26 06:24:33;;;;;;;14.30;8.63;;;;;;;18.15;82.02;97078.94;4989538;28;20200;-70
2023/05/26 06:27:00;;;;;;;8.13;6.13;;;;;;;18.08;82.29;97075.91;4988858;28;20255;-74
2023/05/26 06:29:28;;;;;;;8.77;6.80;;;;;;;18.12;82.33;97074.75;5005926;28;20585;-70
2023/05/26 06:31:55;;;;;;;9.37;6.77;;;;;;;18.33;81.20;97078.38;4989284;28;20197;-71
2023/05/26 06:34:22;;;;;;;7.77;6.10;;;;;;;18.40;80.98;97076.94;5005085;28;20235;-70
2023/05/26 06:36:51;;;;;;;11.73;7.07;;;;;;;18.56;81.30;97089.75;5007518;28;20531;-70
2023/05/26 06:39:19;;;;;;;9.67;7.40;;;;;;;18.74;80.00;97090.97;5005132;28;20702;-71
2023/05/26 06:41:46;;;;;;;12.43;9.50;;;;;;;18.83;79.38;97087.63;5006066;28;20201;-71
2023/05/26 06:44:13;;;;;;;15.37;9.40;;;;;;;18.91;78.28;97095.75;5004917;28;20695;-73
2023/05/26 06:46:41;;;;;;;17.33;9.50;;;;;;;18.34;80.86;97097.56;5005876;28;20298;-73
2023/05/26 06:49:08;;;;;;;19.77;10.03;;;;;;;18.38;81.19;97088.50;4988993;28;20283;-78
2023/05/26 06:51:45;;;;;;;14.47;9.40;;;;;;;18.43;78.87;97097.72;5004821;28;20193;-79
2023/05/26 06:54:12;;;;;;;16.30;9.80;;;;;;;18.15;79.58;97089.41;5005824;28;20201;-78
2023/05/26 06:56:40;;;;;;;14.80;9.50;;;;;;;18.14;79.86;97106.06;5004472;28;20229;-76
2023/05/26 06:59:07;;;;;;;16.00;9.80;;;;;;;18.61;79.03;97101.56;5005904;28;20213;-71
2023/05/26 07:01:34;;;;;;;15.20;9.03;;;;;;;19.02;76.38;97092.28;4987934;28;20238;-73
2023/05/26 07:04:02;;;;;;;17.07;10.50;;;;;;;19.04;75.54;97096.44;5005111;28;20193;-72
2023/05/26 07:06:30;;;;;;;18.57;10.53;;;;;;;19.04;73.24;97096.44;5004658;28;20260;-73
2023/05/26 07:09:13;;;;;;;10.37;6.87;;;;;;;19.33;71.62;97100.25;5004222;28;20300;-74
2023/05/26 07:11:55;;;;;;;9.53;6.83;;;;;;;19.28;71.88;97112.91;5005442;28;20205;-77
2023/05/26 07:14:40;;;;;;;9.50;7.37;;;;;;;19.11;73.45;97108.13;5004596;28;20226;-73
2023/05/26 07:17:09;;;;;;;26.00;8.60;;;;;;;19.49;72.27;97094.63;5005200;28;20194;-77
2023/05/26 07:19:38;;;;;;;17.40;8.17;;;;;;;19.90;70.91;97109.66;5004703;28;20264;-72
2023/05/26 07:22:06;;;;;;;14.37;7.77;;;;;;;20.25;69.54;97104.97;5004029;28;20616;-70
2023/05/26 07:24:37;;;;;;;16.20;9.93;;;;;;;20.39;69.09;97094.13;5005406;28;20697;-70
2023/05/26 07:27:05;;;;;;;25.43;20.50;;;;;;;20.35;68.12;97105.88;5003830;28;20316;-71
2023/05/26 07:29:33;;;;;;;18.30;10.07;;;;;;;20.67;67.52;97082.94;5005358;28;20198;-71
2023/05/26 07:32:00;;;;;;;9.03;5.50;;;;;;;21.01;66.27;97100.16;5003956;28;20199;-72
2023/05/26 07:34:27;;;;;;;14.90;6.23;;;;;;;21.18;65.46;97095.25;5005893;28;20203;-71
2023/05/26 07:36:55;;;;;;;7.20;4.53;;;;;;;21.36;64.52;97096.25;5004703;28;20195;-74
2023/05/26 07:39:22;;;;;;;7.13;4.93;;;;;;;21.51;64.83;97100.19;4987856;28;20201;-72
2023/05/26 07:41:49;;;;;;;4.97;4.47;;;;;;;21.59;64.81;97105.63;5005166;28;20199;-71
2023/05/26 07:44:17;;;;;;;10.47;5.30;;;;;;;21.23;66.13;97098.28;5004173;28;20208;-73
2023/05/26 07:46:45;;;;;;;7.93;4.97;;;;;;;21.35;65.92;97084.06;5006570;28;20219;-74
2023/05/26 07:49:14;;;;;;;8.60;6.17;;;;;;;21.62;65.25;97082.44;5005232;28;20291;-72
2023/05/26 07:51:41;;;;;;;6.90;5.43;;;;;;;21.68;64.15;97099.50;5006271;28;20654;-73
2023/05/26 07:54:08;;;;;;;8.00;4.97;;;;;;;21.74;64.29;97098.97;5020777;28;20192;-71
2023/05/26 07:56:36;;;;;;;9.17;5.37;;;;;;;21.70;64.88;97098.41;4987141;28;20655;-74
2023/05/26 07:59:03;;;;;;;11.00;8.20;;;;;;;21.70;63.56;97100.22;5004661;28;20262;-70
2023/05/26 08:01:30;;;;;;;7.67;5.00;;;;;;;21.72;63.06;97095.66;5004005;28;20303;-77
2023/05/26 08:03:58;;;;;;;8.77;6.30;;;;;;;21.87;62.64;97104.84;4986943;28;20228;-75
2023/05/26 08:06:25;;;;;;;11.90;5.67;;;;;;;21.76;63.83;97089.13;5003952;28;20223;-74
2023/05/26 08:08:53;;;;;;;8.70;4.90;;;;;;;21.92;63.91;97094.72;5005197;28;20613;-73
2023/05/26 08:11:22;;;;;;;11.33;5.10;;;;;;;22.06;63.01;97089.03;5002724;28;20772;-78
2023/05/26 08:13:49;;;;;;;6.37;4.73;;;;;;;22.10;63.31;97100.97;5003423;28;20237;-73
2023/05/26 08:16:58;;;;;;;11.93;4.83;;;;;;;22.20;63.33;97107.06;5002728;28;20240;-70
2023/05/26 08:20:19;;;;;;;8.17;6.50;;;;;;;22.31;62.47;97104.28;5001422;28;20196;-71
2023/05/26 08:23:41;;;;;;;17.07;7.50;;;;;;;22.39;62.78;97090.38;5003579;28;20230;-72
2023/05/26 08:27:01;;;;;;;9.60;5.17;;;;;;;22.67;61.01;97068.38;5006265;28;20262;-71
2023/05/26 08:30:22;;;;;;;9.40;5.40;;;;;;;23.36;58.66;97067.00;5007662;28;20230;-76
2023/05/26 08:33:43;;;;;;;8.17;4.57;;;;;;;23.84;56.54;97071.97;5006709;28;20200;-73
2023/05/26 08:37:03;;;;;;;9.77;3.90;;;;;;;23.63;56.21;97070.59;5004766;28;20600;-76
2023/05/26 08:40:25;;;;;;;6.13;4.00;;;;;;;23.69;56.42;97065.53;5007556;28;20216;-71
2023/05/26 08:43:48;;;;;;;13.20;4.83;;;;;;;23.90;55.65;97066.06;5003092;28;20649;-75
2023/05/26 08:47:11;;;;;;;7.40;3.57;;;;;;;24.28;53.37;97059.63;4996926;28;20233;-77
2023/05/26 08:50:32;;;;;;;4.97;2.90;;;;;;;24.36;51.53;97067.63;5006944;28;20204;-75
2023/05/26 08:53:53;;;;;;;4.43;3.30;;;;;;;24.18;49.76;97065.03;5006763;28;20202;-75
2023/05/26 08:57:14;;;;;;;4.27;2.87;;;;;;;24.28;49.05;97074.69;4485078;28;15129461;-75
2023/05/26 09:00:35;;;;;;;5.27;2.60;;;;;;;23.93;49.37;97072.84;4992708;28;20207;-73
2023/05/26 09:03:56;;;;;;;5.07;2.97;;;;;;;23.88;49.15;97068.03;4987103;28;20210;-74
2023/05/26 09:07:23;;;;;;;3.57;3.03;;;;;;;23.96;49.31;97059.34;4987776;28;20234;-72
2023/05/26 09:11:02;;;;;;;4.97;2.63;;;;;;;23.82;50.48;97057.22;4970516;28;20700;-72
2023/05/26 09:14:23;;;;;;;6.40;3.53;;;;;;;23.79;50.24;97034.56;4989063;28;20208;-69
2023/05/26 09:17:44;;;;;;;5.50;2.93;;;;;;;23.74;50.39;97031.50;4989375;28;20211;-72
2023/05/26 09:20:28;;;;;;;7.13;3.00;;;;;;;23.41;51.34;97042.78;4987912;28;20295;-70
2023/05/26 09:22:57;;;;;;;3.33;2.80;;;;;;;23.07;51.11;97053.09;4988993;28;20233;-70
2023/05/26 09:25:30;;;;;;;6.13;3.10;;;;;;;23.09;52.21;97042.34;5003747;28;20578;-69
2023/05/26 09:28:05;;;;;;;3.47;2.70;;;;;;;23.11;51.65;97041.25;4987553;28;20234;-69
2023/05/26 09:30:37;;;;;;;3.37;2.70;;;;;;;23.16;52.36;97040.81;5003742;28;20282;-69
2023/05/26 09:33:07;;;;;;;3.53;2.83;;;;;;;23.16;51.67;97030.22;4987365;28;20232;-75
2023/05/26 09:35:43;;;;;;;3.80;2.87;;;;;;;23.07;51.22;97029.31;4987664;28;20199;-73
2023/05/26 09:38:11;;;;;;;4.20;2.93;;;;;;;23.00;52.20;97032.69;4987581;28;20280;-70
2023/05/26 09:40:47;;;;;;;3.63;2.97;;;;;;;22.85;52.17;97003.28;4987939;28;20280;-70
2023/05/26 09:43:19;;;;;;;4.40;2.80;;;;;;;22.96;52.04;97026.00;5003665;28;20208;-72
2023/05/26 09:45:46;;;;;;;4.97;3.13;;;;;;;23.10;52.16;97022.91;4985825;28;20313;-71
2023/05/26 09:48:14;;;;;;;3.70;3.33;;;;;;;23.10;53.00;97013.13;4988418;28;20591;-72
2023/05/26 09:50:41;;;;;;;3.43;3.10;;;;;;;;;;4987611;28;20622;-73
2023/05/26 09:53:10;;;;;;;3.93;2.90;;;;;;;22.91;53.93;96991.28;4987721;28;20197;-76
2023/05/26 09:55:39;;;;;;;4.50;3.40;;;;;;;22.64;55.11;97011.44;4987674;28;20626;-77
2023/05/26 09:58:08;;;;;;;3.93;3.50;;;;;;;22.94;56.58;97004.19;4987895;28;20194;-79
2023/05/26 10:00:36;;;;;;;4.53;3.43;;;;;;;23.41;54.68;97003.13;4988486;28;20208;-75
2023/05/26 10:03:06;;;;;;;3.67;3.33;;;;;;;23.58;54.00;96988.22;5002196;28;20206;-78
2023/05/26 10:05:38;;;;;;;4.40;2.93;;;;;;;23.64;52.40;96999.03;4988210;28;20753;-75
2023/05/26 10:08:06;;;;;;;4.00;2.90;;;;;;;23.39;53.40;96986.56;4987289;28;20233;-74
2023/05/26 10:10:34;;;;;;;6.53;3.50;;;;;;;23.78;51.88;96985.25;5003064;28;20211;-73
2023/05/26 10:13:03;;;;;;;6.60;3.27;;;;;;;24.11;51.24;96975.81;5002389;28;20347;-73
2023/05/26 10:15:31;;;;;;;3.10;2.77;;;;;;;23.97;49.85;96987.75;4985651;28;20737;-75
2023/05/26 10:18:00;;;;;;;5.33;2.87;;;;;;;23.85;49.12;96978.38;5002871;28;20209;-75
2023/05/26 10:20:29;;;;;;;5.97;3.00;;;;;;;23.90;48.86;96981.41;4986709;28;20306;-78
2023/05/26 10:22:59;;;;;;;4.47;2.90;;;;;;;23.60;51.18;96975.69;4988078;28;20189;-71
2023/05/26 10:25:43;;;;;;;3.50;2.77;;;;;;;23.13;51.47;96986.44;4986730;28;20199;-74
2023/05/26 10:28:37;;;;;;;4.20;2.90;;;;;;;23.19;52.09;96975.28;4987582;28;20316;-70
2023/05/26 10:31:04;;;;;;;3.33;3.00;;;;;;;23.29;50.82;96964.63;5003147;28;20190;-77
2023/05/26 10:33:43;;;;;;;5.10;3.10;;;;;;;23.46;50.83;96977.06;5001883;28;20688;-74
2023/05/26 10:36:16;;;;;;;6.90;3.57;;;;;;;23.37;51.74;96977.94;4987994;28;20230;-73
2023/05/26 10:38:47;;;;;;;5.30;2.97;;;;;;;23.30;50.28;96977.72;4987104;28;20196;-78
2023/05/26 10:41:47;;;;;;;3.43;2.77;;;;;;;23.16;52.27;96975.56;5002643;28;20210;-72
2023/05/26 10:44:44;;;;;;;3.17;2.80;;;;;;;23.33;52.08;96976.59;4988158;28;20311;-75
2023/05/26 10:47:16;;;;;;;5.40;3.20;;;;;;;23.31;52.34;96973.22;4986315;28;20230;-72
2023/05/26 10:49:58;;;;;;;5.27;2.93;;;;;;;22.99;52.83;96972.91;5002677;28;20225;-73
2023/05/26 10:52:26;;;;;;;4.20;3.10;;;;;;;22.17;52.39;96978.09;4985949;28;20208;-76
2023/05/26 10:54:53;;;;;;;5.20;3.17;;;;;;;21.90;52.37;96970.09;4986254;28;20202;-75
2023/05/26 10:57:32;;;;;;;3.97;3.07;;;;;;;21.67;52.49;96966.03;5001800;28;20254;-72
2023/05/26 11:00:24;;;;;;;5.17;3.10;;;;;;;21.54;52.44;96976.88;4986226;28;20193;-78
2023/05/26 11:02:51;;;;;;;4.30;3.30;;;;;;;21.39;53.27;96951.91;4986856;28;20192;-75
2023/05/26 11:05:29;;;;;;;4.90;3.00;;;;;;;21.25;54.71;96964.63;5001672;28;20203;-76
2023/05/26 11:07:57;;;;;;;3.63;3.33;;;;;;;21.14;55.10;96973.53;4986072;28;20246;-75
2023/05/26 11:10:25;;;;;;;3.60;3.30;;;;;;;20.97;56.54;96977.63;4987202;28;20271;-72
2023/05/26 11:12:57;;;;;;;7.73;3.60;;;;;;;20.86;57.13;96969.81;4984688;28;20247;-72
2023/05/26 11:15:28;;;;;;;6.07;3.70;;;;;;;20.79;58.07;96983.66;4987250;28;20195;-70
2023/05/26 11:18:08;;;;;;;6.13;4.07;;;;;;;20.91;59.86;96969.44;4984917;28;20199;-76
2023/05/26 11:20:36;;;;;;;6.13;4.30;;;;;;;20.80;60.39;96978.25;4986742;28;20675;-73
2023/05/26 11:23:03;;;;;;;4.97;3.60;;;;;;;20.68;61.24;96989.03;5002409;28;20310;-72
2023/05/26 11:25:42;;;;;;;5.23;3.87;;;;;;;20.41;61.88;96972.97;4985830;28;20732;-70
2023/05/26 11:28:09;;;;;;;5.70;3.87;;;;;;;20.34;62.22;96980.56;4987059;28;20227;-74
2023/05/26 11:30:36;;;;;;;4.10;3.70;;;;;;;20.33;63.35;96971.03;4986139;28;20202;-73
2023/05/26 11:33:12;;;;;;;4.53;3.50;;;;;;;20.53;64.81;96977.19;4986787;28;20194;-70
2023/05/26 11:35:39;;;;;;;4.20;3.60;;;;;;;20.77;61.35;96965.34;4985669;28;20670;-70
2023/05/26 11:38:06;;;;;;;3.97;3.57;;;;;;;20.93;64.36;96976.22;4986133;28;20199;-73
2023/05/26 11:40:34;;;;;;;3.83;3.53;;;;;;;20.83;64.37;96966.63;4989599;28;20206;-71
2023/05/26 11:43:01;;;;;;;3.87;3.53;;;;;;;20.83;66.74;96970.09;5004419;28;20218;-73
2023/05/26 11:45:28;;;;;;;6.30;3.50;;;;;;;20.88;64.57;96960.00;5006877;28;20641;-73
2023/05/26 11:47:55;;;;;;;4.53;4.13;;;;;;;21.15;64.86;96971.69;5005839;28;20269;-73
2023/05/26 11:50:22;;;;;;;4.10;3.70;;;;;;;21.11;64.69;96962.41;5022026;28;20689;-70
2023/05/26 11:52:50;;;;;;;4.77;4.27;;;;;;;21.02;65.38;96959.63;5006357;28;20211;-75
2023/05/26 11:55:20;;;;;;;5.73;3.60;;;;;;;20.59;66.27;96961.69;5005890;28;20314;-75
2023/05/26 11:57:47;;;;;;;4.70;3.30;;;;;;;20.56;64.70;96956.72;5005420;28;20285;-74
2023/05/26 12:00:17;;;;;;;4.27;3.70;;;;;;;20.61;63.97;96945.81;5008283;28;20209;-78
2023/05/26 12:02:46;;;;;;;3.93;3.60;;;;;;;20.79;63.24;96941.56;5010452;28;20289;-71
2023/05/26 12:05:18;;;;;;;5.97;3.40;;;;;;;21.11;62.84;96936.06;5009516;28;20248;-76
2023/05/26 12:07:46;;;;;;;6.17;3.67;;;;;;;21.33;61.75;96935.84;5008823;28;20227;-72
2023/05/26 12:10:13;;;;;;;5.30;3.53;;;;;;;21.43;60.47;96902.41;5009934;28;20854;-75
2023/05/26 12:12:50;;;;;;;9.30;3.90;;;;;;;21.55;60.15;96893.38;5009742;28;20630;-77
2023/05/26 12:15:19;;;;;;;5.70;3.40;;;;;;;21.61;58.59;96895.44;5009041;28;20302;-74
2023/05/26 12:17:55;;;;;;;8.87;3.53;;;;;;;21.54;57.77;96891.69;5007968;28;20191;-71
2023/05/26 12:20:25;;;;;;;4.13;3.70;;;;;;;21.55;56.57;96882.84;5008607;28;20261;-76
2023/05/26 12:23:11;;;;;;;8.23;3.63;;;;;;;21.67;58.15;96894.88;5009339;28;20273;-72
2023/05/26 12:25:39;;;;;;;9.77;3.53;;;;;;;21.92;58.81;96906.66;5009262;28;20733;-79
2023/05/26 12:28:06;;;;;;;9.67;4.43;;;;;;;22.14;58.29;96911.56;5024911;28;20227;-78
2023/05/26 12:30:35;;;;;;;7.23;4.20;;;;;;;22.30;57.98;96902.06;4990962;28;20594;-76
2023/05/26 12:33:15;;;;;;;8.70;3.80;;;;;;;22.47;58.32;96892.53;5008343;28;20287;-76
2023/05/26 12:35:44;;;;;;;5.80;3.47;;;;;;;22.73;57.00;96890.88;5007240;28;20725;-79
2023/05/26 12:38:12;;;;;;;5.57;3.30;;;;;;;22.85;55.26;96892.38;5008274;28;20224;-73
2023/05/26 12:40:40;;;;;;;3.67;3.20;;;;;;;22.95;56.18;96879.91;5009309;28;20629;-71
2023/05/26 12:43:07;;;;;;;4.80;3.17;;;;;;;23.05;54.84;96887.75;5008681;28;20256;-71
2023/05/26 12:45:35;;;;;;;3.87;3.57;;;;;;;22.86;55.60;96879.97;5008945;28;20221;-75
2023/05/26 12:48:03;;;;;;;5.07;3.20;;;;;;;22.91;55.31;96875.06;5007130;28;20220;-72
2023/05/26 12:50:30;;;;;;;7.77;3.83;;;;;;;23.09;54.33;96873.25;5008838;28;20572;-75
2023/05/26 12:52:57;;;;;;;4.07;3.40;;;;;;;23.20;54.29;96878.34;5000280;28;20210;-76